QFA123 YSSY-YMML
Flight info
| Callsign | QFA123 |
|---|---|
| Flight time | 1h 8m |
| Altitude | 35000 |
| Route | WOL H65 LEECE Q29 ML |
| Aircraft | A20N/M-SDE2E3FGHIRWXY/LB1 |
Departure
| Time | 2026-04-24 13:12 |
|---|---|
| Airport | Sydney Kingsford Smith International Airport (YSSY) |
Arrival
| Time | 2026-04-24 14:20 |
|---|---|
| Airport | Melbourne Airport (YMML) |
| Time | Latitude | Longitude | Altitude | Speed | Heading |
|---|---|---|---|---|---|
| 2026-04-24 12:39 | -33.93103 | 151.17627 | 35 ft | 0 kts | 167° |
| 2026-04-24 12:52 | -33.93090 | 151.17622 | 35 ft | 2 kts | 166° |
| 2026-04-24 12:52 | -33.93076 | 151.17621 | 35 ft | 2 kts | 186° |
| 2026-04-24 12:53 | -33.93061 | 151.17624 | 35 ft | 2 kts | 201° |
| 2026-04-24 12:53 | -33.93048 | 151.17633 | 35 ft | 2 kts | 219° |
| 2026-04-24 12:53 | -33.93038 | 151.17645 | 35 ft | 2 kts | 237° |
| 2026-04-24 12:53 | -33.93031 | 151.17662 | 35 ft | 2 kts | 255° |
| 2026-04-24 12:54 | -33.93029 | 151.17680 | 35 ft | 2 kts | 273° |
| 2026-04-24 12:54 | -33.93032 | 151.17697 | 35 ft | 2 kts | 290° |
| 2026-04-24 12:54 | -33.93035 | 151.17706 | 35 ft | 1 kts | 300° |
| 2026-04-24 12:54 | -33.93038 | 151.17711 | 35 ft | 0 kts | 301° |
| 2026-04-24 12:57 | -33.93037 | 151.17709 | 35 ft | 0 kts | 300° |
| 2026-04-24 13:05 | -33.93037 | 151.17708 | 35 ft | 0 kts | 300° |
| 2026-04-24 13:06 | -33.93028 | 151.17693 | 35 ft | 4 kts | 302° |
| 2026-04-24 13:06 | -33.93015 | 151.17647 | 35 ft | 7 kts | 282° |
| 2026-04-24 13:06 | -33.93002 | 151.17574 | 35 ft | 10 kts | 281° |
| 2026-04-24 13:06 | -33.92986 | 151.17473 | 35 ft | 13 kts | 281° |
| 2026-04-24 13:07 | -33.92967 | 151.17358 | 35 ft | 13 kts | 281° |
| 2026-04-24 13:07 | -33.92960 | 151.17311 | 35 ft | 0 kts | 281° |
| 2026-04-24 13:10 | -33.92959 | 151.17305 | 35 ft | 2 kts | 281° |
| 2026-04-24 13:10 | -33.92954 | 151.17248 | 35 ft | 10 kts | 264° |
| 2026-04-24 13:11 | -33.93011 | 151.17177 | 35 ft | 12 kts | 183° |
| 2026-04-24 13:11 | -33.93050 | 151.17186 | 35 ft | 0 kts | 167° |
| 2026-04-24 13:11 | -33.93110 | 151.17201 | 35 ft | 36 kts | 169° |
| 2026-04-24 13:11 | -33.93611 | 151.17331 | 35 ft | 106 kts | 167° |
| 2026-04-24 13:12 | -33.94538 | 151.17570 | 38 ft | 161 kts | 170° |
| 2026-04-24 13:12 | -33.95647 | 151.17883 | 553 ft | 166 kts | 166° |
| 2026-04-24 13:12 | -33.96798 | 151.18083 | 1184 ft | 170 kts | 180° |
| 2026-04-24 13:12 | -33.97976 | 151.17973 | 1829 ft | 173 kts | 183° |
| 2026-04-24 13:13 | -33.99226 | 151.17819 | 2259 ft | 187 kts | 182° |
| 2026-04-24 13:13 | -34.00572 | 151.17679 | 2654 ft | 203 kts | 181° |
| 2026-04-24 13:13 | -34.02050 | 151.17578 | 3063 ft | 220 kts | 177° |
| 2026-04-24 13:13 | -34.03621 | 151.17793 | 3437 ft | 238 kts | 165° |
| 2026-04-24 13:14 | -34.05271 | 151.18303 | 4020 ft | 250 kts | 162° |
| 2026-04-24 13:14 | -34.06996 | 151.18893 | 4534 ft | 266 kts | 161° |
| 2026-04-24 13:14 | -34.08787 | 151.19507 | 5257 ft | 274 kts | 162° |
| 2026-04-24 13:14 | -34.10631 | 151.20128 | 6090 ft | 277 kts | 162° |
| 2026-04-24 13:15 | -34.12497 | 151.20754 | 6931 ft | 281 kts | 162° |
| 2026-04-24 13:15 | -34.14357 | 151.21374 | 7779 ft | 283 kts | 161° |
| 2026-04-24 13:15 | -34.16255 | 151.22008 | 8640 ft | 285 kts | 161° |
| 2026-04-24 13:15 | -34.18186 | 151.22572 | 9480 ft | 290 kts | 171° |
| 2026-04-24 13:16 | -34.20188 | 151.22287 | 10274 ft | 298 kts | 199° |
| 2026-04-24 13:16 | -34.21963 | 151.20934 | 10816 ft | 315 kts | 224° |
| 2026-04-24 13:16 | -34.23423 | 151.18889 | 11358 ft | 327 kts | 229° |
| 2026-04-24 13:16 | -34.24879 | 151.16742 | 12113 ft | 331 kts | 229° |
| 2026-04-24 13:17 | -34.26332 | 151.14639 | 12935 ft | 333 kts | 228° |
| 2026-04-24 13:17 | -34.27834 | 151.12501 | 13709 ft | 334 kts | 228° |
| 2026-04-24 13:17 | -34.29346 | 151.10362 | 14454 ft | 337 kts | 228° |
| 2026-04-24 13:17 | -34.30875 | 151.08205 | 15146 ft | 341 kts | 227° |
| 2026-04-24 13:18 | -34.32400 | 151.06055 | 15812 ft | 344 kts | 228° |
| 2026-04-24 13:18 | -34.33973 | 151.03836 | 16480 ft | 348 kts | 227° |
| 2026-04-24 13:18 | -34.35557 | 151.01601 | 17144 ft | 351 kts | 228° |
| 2026-04-24 13:18 | -34.37197 | 150.99414 | 17805 ft | 354 kts | 224° |
| 2026-04-24 13:19 | -34.38977 | 150.97339 | 18320 ft | 361 kts | 220° |
| 2026-04-24 13:19 | -34.40852 | 150.95297 | 18832 ft | 367 kts | 220° |
| 2026-04-24 13:19 | -34.42768 | 150.93230 | 19449 ft | 370 kts | 220° |
| 2026-04-24 13:19 | -34.44680 | 150.91165 | 20079 ft | 372 kts | 220° |
| 2026-04-24 13:20 | -34.46614 | 150.89072 | 20695 ft | 375 kts | 220° |
| 2026-04-24 13:20 | -34.48571 | 150.86948 | 21306 ft | 377 kts | 220° |
| 2026-04-24 13:20 | -34.50526 | 150.84821 | 21890 ft | 379 kts | 220° |
| 2026-04-24 13:20 | -34.52471 | 150.82701 | 22456 ft | 382 kts | 220° |
| 2026-04-24 13:21 | -34.54447 | 150.80507 | 23012 ft | 385 kts | 222° |
| 2026-04-24 13:21 | -34.56271 | 150.78148 | 23550 ft | 388 kts | 227° |
| 2026-04-24 13:21 | -34.57946 | 150.75571 | 24057 ft | 392 kts | 231° |
| 2026-04-24 13:21 | -34.59560 | 150.72910 | 24544 ft | 395 kts | 231° |
| 2026-04-24 13:22 | -34.61178 | 150.70209 | 25017 ft | 398 kts | 231° |
| 2026-04-24 13:22 | -34.62806 | 150.67491 | 25477 ft | 401 kts | 231° |
| 2026-04-24 13:22 | -34.64462 | 150.64731 | 25936 ft | 404 kts | 231° |
| 2026-04-24 13:22 | -34.66111 | 150.61983 | 26367 ft | 406 kts | 231° |
| 2026-04-24 13:23 | -34.67769 | 150.59221 | 26784 ft | 409 kts | 231° |
| 2026-04-24 13:23 | -34.69455 | 150.56412 | 27208 ft | 411 kts | 230° |
| 2026-04-24 13:23 | -34.71152 | 150.53584 | 27613 ft | 414 kts | 230° |
| 2026-04-24 13:23 | -34.72834 | 150.50783 | 27994 ft | 416 kts | 230° |
| 2026-04-24 13:24 | -34.74558 | 150.47905 | 28388 ft | 418 kts | 230° |
| 2026-04-24 13:24 | -34.76270 | 150.45047 | 28763 ft | 420 kts | 230° |
| 2026-04-24 13:24 | -34.77970 | 150.42206 | 29127 ft | 423 kts | 230° |
| 2026-04-24 13:24 | -34.79705 | 150.39305 | 29478 ft | 425 kts | 230° |
| 2026-04-24 13:25 | -34.81444 | 150.36397 | 29833 ft | 427 kts | 229° |
| 2026-04-24 13:25 | -34.83183 | 150.33481 | 30172 ft | 429 kts | 230° |
| 2026-04-24 13:25 | -34.84942 | 150.30534 | 30504 ft | 430 kts | 230° |
| 2026-04-24 13:25 | -34.86703 | 150.27580 | 30871 ft | 431 kts | 230° |
| 2026-04-24 13:26 | -34.88457 | 150.24632 | 31342 ft | 429 kts | 230° |
| 2026-04-24 13:26 | -34.90181 | 150.21735 | 31833 ft | 426 kts | 230° |
| 2026-04-24 13:26 | -34.91906 | 150.18829 | 32290 ft | 423 kts | 230° |
| 2026-04-24 13:26 | -34.93636 | 150.15920 | 32721 ft | 421 kts | 230° |
| 2026-04-24 13:27 | -34.95334 | 150.13058 | 33135 ft | 419 kts | 230° |
| 2026-04-24 13:27 | -34.97020 | 150.10213 | 33516 ft | 418 kts | 230° |
| 2026-04-24 13:27 | -34.98712 | 150.07359 | 33882 ft | 416 kts | 230° |
| 2026-04-24 13:27 | -35.00404 | 150.04501 | 34297 ft | 414 kts | 230° |
| 2026-04-24 13:28 | -35.02084 | 150.01660 | 34687 ft | 413 kts | 230° |
| 2026-04-24 13:28 | -35.03768 | 149.98813 | 35012 ft | 412 kts | 230° |
| 2026-04-24 13:28 | -35.05432 | 149.95998 | 35281 ft | 413 kts | 230° |
| 2026-04-24 13:28 | -35.07111 | 149.93155 | 35522 ft | 414 kts | 230° |
| 2026-04-24 13:29 | -35.08800 | 149.90294 | 35771 ft | 415 kts | 230° |
| 2026-04-24 13:29 | -35.10487 | 149.87434 | 36015 ft | 415 kts | 230° |
| 2026-04-24 13:29 | -35.12176 | 149.84569 | 36253 ft | 416 kts | 230° |
| 2026-04-24 13:29 | -35.13848 | 149.81726 | 36459 ft | 417 kts | 230° |
| 2026-04-24 13:30 | -35.17232 | 149.75967 | 36481 ft | 418 kts | 230° |
| 2026-04-24 13:30 | -35.20624 | 149.70183 | 36484 ft | 418 kts | 230° |
| 2026-04-24 13:31 | -35.23991 | 149.64432 | 36488 ft | 418 kts | 230° |
| 2026-04-24 13:31 | -35.27374 | 149.58646 | 36491 ft | 418 kts | 230° |
| 2026-04-24 13:32 | -35.30745 | 149.52872 | 36497 ft | 418 kts | 231° |
| 2026-04-24 13:32 | -35.34108 | 149.47098 | 36496 ft | 418 kts | 231° |
| 2026-04-24 13:33 | -35.37470 | 149.41318 | 36496 ft | 418 kts | 231° |
| 2026-04-24 13:33 | -35.40844 | 149.35510 | 36495 ft | 418 kts | 231° |
| 2026-04-24 13:34 | -35.44196 | 149.29730 | 36498 ft | 418 kts | 232° |
| 2026-04-24 13:34 | -35.47566 | 149.23906 | 36496 ft | 418 kts | 232° |
| 2026-04-24 13:35 | -35.50912 | 149.18115 | 36497 ft | 418 kts | 232° |
| 2026-04-24 13:35 | -35.54283 | 149.12276 | 36503 ft | 418 kts | 232° |
| 2026-04-24 13:36 | -35.57614 | 149.06490 | 36504 ft | 418 kts | 232° |
| 2026-04-24 13:36 | -35.60984 | 149.00629 | 36505 ft | 418 kts | 232° |
| 2026-04-24 13:37 | -35.64328 | 148.94803 | 36510 ft | 418 kts | 232° |
| 2026-04-24 13:37 | -35.67659 | 148.88991 | 36520 ft | 418 kts | 232° |
| 2026-04-24 13:38 | -35.71001 | 148.83145 | 36529 ft | 418 kts | 232° |
| 2026-04-24 13:38 | -35.74349 | 148.77284 | 36540 ft | 419 kts | 232° |
| 2026-04-24 13:39 | -35.77682 | 148.71439 | 36546 ft | 419 kts | 232° |
| 2026-04-24 13:39 | -35.81004 | 148.65599 | 36544 ft | 419 kts | 232° |
| 2026-04-24 13:40 | -35.84342 | 148.59723 | 36541 ft | 418 kts | 232° |
| 2026-04-24 13:40 | -35.87671 | 148.53853 | 36542 ft | 418 kts | 232° |
| 2026-04-24 13:41 | -35.90993 | 148.47977 | 36546 ft | 418 kts | 233° |
| 2026-04-24 13:41 | -35.94309 | 148.42088 | 36546 ft | 419 kts | 233° |
| 2026-04-24 13:42 | -35.97624 | 148.36192 | 36542 ft | 419 kts | 233° |
| 2026-04-24 13:42 | -36.00931 | 148.30298 | 36538 ft | 419 kts | 233° |
| 2026-04-24 13:43 | -36.04224 | 148.24420 | 36530 ft | 419 kts | 233° |
| 2026-04-24 13:43 | -36.07537 | 148.18495 | 36519 ft | 418 kts | 234° |
| 2026-04-24 13:44 | -36.10829 | 148.12596 | 36500 ft | 418 kts | 234° |
| 2026-04-24 13:44 | -36.14143 | 148.06668 | 36491 ft | 418 kts | 234° |
| 2026-04-24 13:45 | -36.17445 | 148.00766 | 36492 ft | 419 kts | 234° |
| 2026-04-24 13:45 | -36.20750 | 147.94846 | 36490 ft | 419 kts | 234° |
| 2026-04-24 13:46 | -36.24030 | 147.88957 | 36484 ft | 419 kts | 234° |
| 2026-04-24 13:46 | -36.27323 | 147.83031 | 36483 ft | 418 kts | 234° |
| 2026-04-24 13:47 | -36.30629 | 147.77072 | 36486 ft | 418 kts | 234° |
| 2026-04-24 13:47 | -36.33906 | 147.71156 | 36486 ft | 418 kts | 234° |
| 2026-04-24 13:48 | -36.37181 | 147.65227 | 36482 ft | 418 kts | 234° |
| 2026-04-24 13:48 | -36.40455 | 147.59283 | 36486 ft | 418 kts | 234° |
| 2026-04-24 13:49 | -36.43742 | 147.53308 | 36483 ft | 418 kts | 234° |
| 2026-04-24 13:49 | -36.46989 | 147.47392 | 36482 ft | 418 kts | 234° |
| 2026-04-24 13:50 | -36.50263 | 147.41417 | 36482 ft | 418 kts | 234° |
| 2026-04-24 13:50 | -36.53526 | 147.35452 | 36476 ft | 418 kts | 234° |
| 2026-04-24 13:51 | -36.56787 | 147.29480 | 36481 ft | 418 kts | 235° |
| 2026-04-24 13:51 | -36.60026 | 147.23537 | 36481 ft | 417 kts | 235° |
| 2026-04-24 13:52 | -36.63283 | 147.17551 | 36480 ft | 418 kts | 235° |
| 2026-04-24 13:52 | -36.66541 | 147.11549 | 36134 ft | 417 kts | 235° |
| 2026-04-24 13:53 | -36.68153 | 147.08575 | 35839 ft | 415 kts | 235° |
| 2026-04-24 13:53 | -36.69749 | 147.05629 | 35543 ft | 412 kts | 235° |
| 2026-04-24 13:53 | -36.71339 | 147.02695 | 35242 ft | 411 kts | 235° |
| 2026-04-24 13:53 | -36.72950 | 146.99719 | 34936 ft | 411 kts | 235° |
| 2026-04-24 13:54 | -36.74538 | 146.96783 | 34639 ft | 412 kts | 235° |
| 2026-04-24 13:54 | -36.76123 | 146.93849 | 34352 ft | 413 kts | 235° |
| 2026-04-24 13:54 | -36.77740 | 146.90855 | 34057 ft | 413 kts | 235° |
| 2026-04-24 13:54 | -36.79340 | 146.87889 | 33787 ft | 414 kts | 235° |
| 2026-04-24 13:55 | -36.80944 | 146.84914 | 33524 ft | 414 kts | 235° |
| 2026-04-24 13:55 | -36.82529 | 146.81969 | 33259 ft | 415 kts | 235° |
| 2026-04-24 13:55 | -36.84133 | 146.78986 | 32994 ft | 415 kts | 235° |
| 2026-04-24 13:55 | -36.85741 | 146.75993 | 32729 ft | 416 kts | 235° |
| 2026-04-24 13:56 | -36.87345 | 146.73006 | 32391 ft | 416 kts | 235° |
| 2026-04-24 13:56 | -36.88958 | 146.69998 | 31944 ft | 417 kts | 235° |
| 2026-04-24 13:56 | -36.90574 | 146.66981 | 31374 ft | 418 kts | 235° |
| 2026-04-24 13:56 | -36.92188 | 146.63966 | 30767 ft | 419 kts | 235° |
| 2026-04-24 13:57 | -36.93800 | 146.60953 | 30218 ft | 416 kts | 235° |
| 2026-04-24 13:57 | -36.95384 | 146.57988 | 29809 ft | 412 kts | 235° |
| 2026-04-24 13:57 | -36.96958 | 146.55040 | 29371 ft | 409 kts | 235° |
| 2026-04-24 13:57 | -36.98537 | 146.52080 | 28933 ft | 406 kts | 236° |
| 2026-04-24 13:58 | -37.00088 | 146.49171 | 28474 ft | 403 kts | 236° |
| 2026-04-24 13:58 | -37.01644 | 146.46248 | 27994 ft | 400 kts | 236° |
| 2026-04-24 13:58 | -37.03165 | 146.43388 | 27530 ft | 397 kts | 236° |
| 2026-04-24 13:58 | -37.04684 | 146.40530 | 27046 ft | 395 kts | 236° |
| 2026-04-24 13:59 | -37.06205 | 146.37666 | 26582 ft | 392 kts | 236° |
| 2026-04-24 13:59 | -37.07688 | 146.34871 | 26130 ft | 389 kts | 237° |
| 2026-04-24 13:59 | -37.09190 | 146.32039 | 25680 ft | 387 kts | 237° |
| 2026-04-24 13:59 | -37.10659 | 146.29269 | 25204 ft | 385 kts | 237° |
| 2026-04-24 14:00 | -37.12149 | 146.26459 | 24738 ft | 383 kts | 238° |
| 2026-04-24 14:00 | -37.13609 | 146.23702 | 24303 ft | 381 kts | 238° |
| 2026-04-24 14:00 | -37.15067 | 146.20943 | 23850 ft | 379 kts | 238° |
| 2026-04-24 14:00 | -37.16501 | 146.18225 | 23395 ft | 377 kts | 238° |
| 2026-04-24 14:01 | -37.17945 | 146.15483 | 22920 ft | 376 kts | 238° |
| 2026-04-24 14:01 | -37.19376 | 146.12767 | 22456 ft | 375 kts | 238° |
| 2026-04-24 14:01 | -37.20806 | 146.10053 | 21993 ft | 374 kts | 238° |
| 2026-04-24 14:01 | -37.22237 | 146.07332 | 21537 ft | 372 kts | 238° |
| 2026-04-24 14:02 | -37.23653 | 146.04637 | 21085 ft | 371 kts | 238° |
| 2026-04-24 14:02 | -37.25063 | 146.01953 | 20614 ft | 370 kts | 238° |
| 2026-04-24 14:02 | -37.26482 | 145.99251 | 20147 ft | 368 kts | 238° |
| 2026-04-24 14:02 | -37.27887 | 145.96570 | 19681 ft | 367 kts | 238° |
| 2026-04-24 14:03 | -37.29274 | 145.93921 | 19207 ft | 366 kts | 238° |
| 2026-04-24 14:03 | -37.30669 | 145.91260 | 18737 ft | 365 kts | 238° |
| 2026-04-24 14:03 | -37.32055 | 145.88623 | 18272 ft | 364 kts | 238° |
| 2026-04-24 14:03 | -37.33454 | 145.85959 | 17801 ft | 362 kts | 238° |
| 2026-04-24 14:04 | -37.34836 | 145.83331 | 17339 ft | 361 kts | 238° |
| 2026-04-24 14:04 | -37.36208 | 145.80714 | 16885 ft | 359 kts | 238° |
| 2026-04-24 14:04 | -37.37574 | 145.78108 | 16436 ft | 357 kts | 238° |
| 2026-04-24 14:04 | -37.38932 | 145.75513 | 15987 ft | 355 kts | 238° |
| 2026-04-24 14:05 | -37.40281 | 145.72934 | 15542 ft | 353 kts | 238° |
| 2026-04-24 14:05 | -37.41621 | 145.70366 | 15110 ft | 351 kts | 238° |
| 2026-04-24 14:05 | -37.42952 | 145.67819 | 14681 ft | 348 kts | 238° |
| 2026-04-24 14:05 | -37.44265 | 145.65303 | 14250 ft | 347 kts | 238° |
| 2026-04-24 14:06 | -37.45628 | 145.62799 | 13818 ft | 345 kts | 235° |
| 2026-04-24 14:06 | -37.47024 | 145.60388 | 13393 ft | 343 kts | 235° |
| 2026-04-24 14:06 | -37.48437 | 145.57970 | 12971 ft | 342 kts | 235° |
| 2026-04-24 14:06 | -37.49845 | 145.55559 | 12555 ft | 339 kts | 235° |
| 2026-04-24 14:07 | -37.51220 | 145.53198 | 12145 ft | 337 kts | 235° |
| 2026-04-24 14:07 | -37.52610 | 145.50809 | 11709 ft | 335 kts | 236° |
| 2026-04-24 14:07 | -37.53968 | 145.48468 | 11283 ft | 334 kts | 236° |
| 2026-04-24 14:07 | -37.55341 | 145.46101 | 10871 ft | 332 kts | 236° |
| 2026-04-24 14:08 | -37.56687 | 145.43779 | 10466 ft | 330 kts | 236° |
| 2026-04-24 14:08 | -37.58031 | 145.41461 | 10212 ft | 321 kts | 236° |
| 2026-04-24 14:08 | -37.59325 | 145.39229 | 10104 ft | 308 kts | 236° |
| 2026-04-24 14:08 | -37.60559 | 145.37100 | 9981 ft | 297 kts | 237° |
| 2026-04-24 14:09 | -37.61776 | 145.34992 | 9614 ft | 295 kts | 237° |
| 2026-04-24 14:09 | -37.62983 | 145.32898 | 9249 ft | 294 kts | 237° |
| 2026-04-24 14:09 | -37.64173 | 145.30830 | 8887 ft | 292 kts | 237° |
| 2026-04-24 14:09 | -37.65360 | 145.28772 | 8536 ft | 290 kts | 237° |
| 2026-04-24 14:10 | -37.66534 | 145.26732 | 8197 ft | 288 kts | 237° |
| 2026-04-24 14:10 | -37.67717 | 145.24677 | 7846 ft | 286 kts | 237° |
| 2026-04-24 14:10 | -37.68877 | 145.22664 | 7506 ft | 283 kts | 237° |
| 2026-04-24 14:10 | -37.70020 | 145.20676 | 7172 ft | 281 kts | 237° |
| 2026-04-24 14:11 | -37.71174 | 145.18671 | 6830 ft | 279 kts | 237° |
| 2026-04-24 14:11 | -37.72305 | 145.16704 | 6501 ft | 277 kts | 237° |
| 2026-04-24 14:11 | -37.74544 | 145.12807 | 5915 ft | 270 kts | 237° |
| 2026-04-24 14:12 | -37.75641 | 145.10899 | 5763 ft | 260 kts | 237° |
| 2026-04-24 14:12 | -37.76675 | 145.09102 | 5661 ft | 249 kts | 238° |
| 2026-04-24 14:12 | -37.77692 | 145.07324 | 5381 ft | 248 kts | 238° |
| 2026-04-24 14:12 | -37.78702 | 145.05560 | 5086 ft | 247 kts | 238° |
| 2026-04-24 14:13 | -37.79709 | 145.03799 | 4808 ft | 246 kts | 238° |
| 2026-04-24 14:13 | -37.80702 | 145.02057 | 4527 ft | 244 kts | 240° |
| 2026-04-24 14:13 | -37.81472 | 145.00171 | 4248 ft | 237 kts | 256° |
| 2026-04-24 14:13 | -37.81884 | 144.98216 | 3988 ft | 228 kts | 262° |
| 2026-04-24 14:14 | -37.82012 | 144.97478 | 3867 ft | 225 kts | 263° |
| 2026-04-24 14:14 | -37.82544 | 144.94231 | 3452 ft | 202 kts | 266° |
| 2026-04-24 14:15 | -37.82757 | 144.92555 | 3498 ft | 189 kts | 268° |
| 2026-04-24 14:15 | -37.82947 | 144.90976 | 3517 ft | 170 kts | 268° |
| 2026-04-24 14:15 | -37.83120 | 144.89574 | 3453 ft | 156 kts | 269° |
| 2026-04-24 14:15 | -37.83261 | 144.88245 | 3393 ft | 151 kts | 277° |
| 2026-04-24 14:16 | -37.82925 | 144.87103 | 3237 ft | 137 kts | 319° |
| 2026-04-24 14:16 | -37.82088 | 144.86586 | 3118 ft | 135 kts | 349° |
| 2026-04-24 14:16 | -37.81141 | 144.86420 | 2911 ft | 136 kts | 351° |
| 2026-04-24 14:17 | -37.79289 | 144.86072 | 2499 ft | 133 kts | 351° |
| 2026-04-24 14:17 | -37.78373 | 144.85901 | 2331 ft | 133 kts | 351° |
| 2026-04-24 14:17 | -37.76547 | 144.85561 | 1972 ft | 132 kts | 352° |
| 2026-04-24 14:18 | -37.75640 | 144.85391 | 1802 ft | 132 kts | 352° |
| 2026-04-24 14:18 | -37.74731 | 144.85222 | 1627 ft | 131 kts | 352° |
| 2026-04-24 14:18 | -37.73828 | 144.85054 | 1454 ft | 131 kts | 352° |
| 2026-04-24 14:18 | -37.72930 | 144.84886 | 1283 ft | 130 kts | 352° |
| 2026-04-24 14:19 | -37.72033 | 144.84720 | 1109 ft | 129 kts | 352° |
| 2026-04-24 14:19 | -37.71138 | 144.84554 | 934 ft | 129 kts | 352° |
| 2026-04-24 14:19 | -37.70254 | 144.84389 | 767 ft | 128 kts | 352° |
| 2026-04-24 14:19 | -37.69371 | 144.84232 | 604 ft | 128 kts | 353° |
| 2026-04-24 14:20 | -37.68488 | 144.84090 | 472 ft | 128 kts | 352° |
| 2026-04-24 14:20 | -37.67648 | 144.83949 | 442 ft | 108 kts | 346° |
| 2026-04-24 14:20 | -37.67073 | 144.83818 | 442 ft | 58 kts | 352° |
| 2026-04-24 14:20 | -37.66771 | 144.83762 | 441 ft | 29 kts | 351° |
| 2026-04-24 14:21 | -37.66606 | 144.83737 | 441 ft | 15 kts | 6° |
| 2026-04-24 14:21 | -37.66536 | 144.83781 | 441 ft | 11 kts | 50° |
| 2026-04-24 14:21 | -37.66517 | 144.83823 | 441 ft | 0 kts | 70° |
| 2026-04-24 14:23 | -37.66517 | 144.83824 | 441 ft | 0 kts | 70° |
| 2026-04-24 14:23 | -37.66514 | 144.83833 | 441 ft | 1 kts | 70° |
| 2026-04-24 14:23 | -37.66510 | 144.83856 | 441 ft | 3 kts | 86° |
| 2026-04-24 14:23 | -37.66509 | 144.83891 | 441 ft | 4 kts | 89° |
| 2026-04-24 14:24 | -37.66511 | 144.83939 | 441 ft | 6 kts | 96° |
| 2026-04-24 14:24 | -37.66517 | 144.84000 | 441 ft | 7 kts | 92° |
| 2026-04-24 14:24 | -37.66524 | 144.84073 | 441 ft | 9 kts | 110° |
| 2026-04-24 14:24 | -37.66577 | 144.84143 | 441 ft | 13 kts | 153° |
| 2026-04-24 14:25 | -37.66665 | 144.84169 | 441 ft | 8 kts | 171° |
| 2026-04-24 14:25 | -37.66709 | 144.84198 | 441 ft | 7 kts | 99° |
| 2026-04-24 14:25 | -37.66696 | 144.84264 | 441 ft | 8 kts | 73° |
| 2026-04-24 14:25 | -37.66685 | 144.84341 | 441 ft | 9 kts | 81° |
| 2026-04-24 14:26 | -37.66674 | 144.84433 | 441 ft | 11 kts | 81° |
| 2026-04-24 14:26 | -37.66662 | 144.84532 | 441 ft | 12 kts | 81° |
| 2026-04-24 14:26 | -37.66649 | 144.84642 | 441 ft | 13 kts | 81° |
| 2026-04-24 14:26 | -37.66635 | 144.84747 | 441 ft | 9 kts | 72° |
| 2026-04-24 14:27 | -37.66586 | 144.84802 | 441 ft | 10 kts | 26° |
| 2026-04-24 14:27 | -37.66546 | 144.84872 | 441 ft | 11 kts | 79° |
| 2026-04-24 14:27 | -37.66533 | 144.84973 | 441 ft | 12 kts | 81° |
| 2026-04-24 14:27 | -37.66550 | 144.85053 | 441 ft | 10 kts | 151° |
| 2026-04-24 14:28 | -37.66611 | 144.85065 | 441 ft | 6 kts | 173° |
| 2026-04-24 14:28 | -37.66662 | 144.85074 | 441 ft | 8 kts | 171° |
| 2026-04-24 14:28 | -37.66724 | 144.85086 | 441 ft | 8 kts | 171° |
| 2026-04-24 14:28 | -37.66759 | 144.85066 | 441 ft | 6 kts | 259° |
| 2026-04-24 14:29 | -37.66762 | 144.85030 | 441 ft | 2 kts | 262° |
| 2026-04-24 14:29 | -37.66764 | 144.85017 | 441 ft | 0 kts | 260° |